createdAt,value
2019-05-20T00:00:34.581Z,16.80
2019-05-20T00:03:01.020Z,16.90
2019-05-20T00:05:27.622Z,16.90
2019-05-20T00:07:54.188Z,16.90
2019-05-20T00:10:20.589Z,16.80
2019-05-20T00:12:47.429Z,16.80
2019-05-20T00:15:14.483Z,16.70
2019-05-20T00:17:40.866Z,16.70
2019-05-20T00:20:07.968Z,16.70
2019-05-20T00:22:34.480Z,16.70
2019-05-20T00:25:00.995Z,16.70
2019-05-20T00:27:27.478Z,16.60
2019-05-20T00:29:53.955Z,16.60
2019-05-20T00:32:20.361Z,16.60
2019-05-20T00:34:47.194Z,16.70
2019-05-20T00:37:13.635Z,16.70
2019-05-20T00:39:40.044Z,16.80
2019-05-20T00:42:06.698Z,16.80
2019-05-20T00:44:33.260Z,16.70
2019-05-20T00:46:59.870Z,16.60
2019-05-20T00:49:26.391Z,16.60
2019-05-20T00:51:53.027Z,16.60
2019-05-20T00:54:19.696Z,16.50
2019-05-20T00:56:49.113Z,16.50
2019-05-20T00:59:15.518Z,16.50
2019-05-20T01:01:42.055Z,16.40
2019-05-20T01:04:08.908Z,16.30
2019-05-20T01:06:35.438Z,16.30
2019-05-20T01:09:04.129Z,16.30
2019-05-20T01:11:30.684Z,16.30
2019-05-20T01:13:57.206Z,16.30
2019-05-20T01:16:23.726Z,16.20
2019-05-20T01:18:50.906Z,16.20
2019-05-20T01:21:17.408Z,16.20
2019-05-20T01:23:44.614Z,16.20
2019-05-20T01:26:11.152Z,16.20
2019-05-20T01:28:37.756Z,16.20
2019-05-20T01:31:04.390Z,16.30
2019-05-20T01:33:30.807Z,16.30
2019-05-20T01:35:57.340Z,16.30
2019-05-20T01:38:24.023Z,16.40
2019-05-20T01:40:50.501Z,16.40
2019-05-20T01:43:16.900Z,16.40
2019-05-20T01:45:43.525Z,16.30
2019-05-20T01:48:10.189Z,16.30
2019-05-20T01:50:36.611Z,16.20
2019-05-20T01:53:03.160Z,16.10
2019-05-20T01:55:29.717Z,16.20
2019-05-20T01:57:56.225Z,16.10
2019-05-20T02:00:22.846Z,16.10
2019-05-20T02:02:49.397Z,16.10
2019-05-20T02:05:16.004Z,16.20
2019-05-20T02:07:42.512Z,16.10
2019-05-20T02:10:10.162Z,16.10
2019-05-20T02:12:36.665Z,16.10
2019-05-20T02:15:10.181Z,16.00
2019-05-20T02:17:36.634Z,15.90
2019-05-20T02:20:06.467Z,15.90
2019-05-20T02:22:33.265Z,15.80
2019-05-20T02:24:59.740Z,15.80
2019-05-20T02:27:26.152Z,15.80
2019-05-20T02:29:52.650Z,15.90
2019-05-20T02:32:19.215Z,15.90
2019-05-20T02:34:45.830Z,16.00
2019-05-20T02:37:12.338Z,16.00
2019-05-20T02:39:38.864Z,15.90
2019-05-20T02:42:05.888Z,15.90
2019-05-20T02:44:32.489Z,16.00
2019-05-20T02:46:59.473Z,16.00
2019-05-20T02:49:26.098Z,16.10
2019-05-20T02:51:52.651Z,16.10
2019-05-20T02:54:19.294Z,16.10
2019-05-20T02:56:45.932Z,16.10
2019-05-20T02:59:12.502Z,16.20
2019-05-20T03:01:39.179Z,16.20
2019-05-20T03:04:12.084Z,16.30
2019-05-20T03:06:34.093Z,16.20
2019-05-20T03:09:00.743Z,16.20
2019-05-20T03:11:27.269Z,16.20
2019-05-20T03:13:53.875Z,16.20
2019-05-20T03:16:20.309Z,16.30
2019-05-20T03:18:46.902Z,16.30
2019-05-20T03:21:13.585Z,16.30
2019-05-20T03:23:40.090Z,16.30
2019-05-20T03:26:06.711Z,16.30
2019-05-20T03:28:33.269Z,16.40
2019-05-20T03:30:59.756Z,16.40
2019-05-20T03:33:26.368Z,16.40
2019-05-20T03:35:52.914Z,16.30
2019-05-20T03:38:19.470Z,16.30
2019-05-20T03:40:46.054Z,16.30
2019-05-20T03:43:12.575Z,16.40
2019-05-20T03:45:39.181Z,16.40
2019-05-20T03:48:05.831Z,16.40
2019-05-20T03:50:32.255Z,16.30
2019-05-20T03:52:58.767Z,16.40
2019-05-20T03:55:25.408Z,16.40
2019-05-20T03:57:52.253Z,16.40
2019-05-20T04:00:22.478Z,16.50
2019-05-20T04:02:48.999Z,16.50
2019-05-20T04:05:15.419Z,16.50
2019-05-20T04:07:42.031Z,16.50
2019-05-20T04:10:09.081Z,16.50
2019-05-20T04:12:35.597Z,16.60
2019-05-20T04:15:02.808Z,16.60
2019-05-20T04:17:29.311Z,16.70
2019-05-20T04:19:55.752Z,16.80
2019-05-20T04:22:22.258Z,16.80
2019-05-20T04:24:49.011Z,16.90
2019-05-20T04:27:15.416Z,16.90
2019-05-20T04:29:42.026Z,17.00
2019-05-20T04:32:08.593Z,17.00
2019-05-20T04:34:35.511Z,17.00
2019-05-20T04:37:02.014Z,17.00
2019-05-20T04:39:28.665Z,17.00
2019-05-20T04:41:55.172Z,17.00
2019-05-20T04:44:21.771Z,17.10
2019-05-20T04:46:48.335Z,17.20
2019-05-20T04:49:14.743Z,17.30
2019-05-20T04:51:41.171Z,17.30
2019-05-20T04:54:07.826Z,17.30
2019-05-20T04:56:34.232Z,17.30
2019-05-20T04:59:01.147Z,17.30
2019-05-20T05:01:27.676Z,17.30
2019-05-20T05:03:54.200Z,17.30
2019-05-20T05:06:20.702Z,17.40
2019-05-20T05:08:47.346Z,17.50
2019-05-20T05:11:13.953Z,17.60
2019-05-20T05:13:40.835Z,17.60
2019-05-20T05:16:07.578Z,17.70
2019-05-20T05:18:34.169Z,17.70
2019-05-20T05:21:00.771Z,17.80
2019-05-20T05:23:27.525Z,17.80
2019-05-20T05:25:54.127Z,17.90
2019-05-20T05:28:20.847Z,17.90
2019-05-20T05:30:48.382Z,17.90
2019-05-20T05:33:15.023Z,18.10
2019-05-20T05:35:52.753Z,18.20
2019-05-20T05:38:10.086Z,18.20
2019-05-20T05:40:36.690Z,18.30
2019-05-20T05:43:03.948Z,18.30
2019-05-20T05:45:32.136Z,18.40
2019-05-20T05:47:58.947Z,18.40
2019-05-20T05:50:25.411Z,18.60
2019-05-20T05:52:51.997Z,18.70
2019-05-20T05:55:18.421Z,18.80
2019-05-20T05:57:45.184Z,18.90
2019-05-20T06:00:11.892Z,19.00
2019-05-20T06:02:38.404Z,19.10
2019-05-20T06:05:05.153Z,19.20
2019-05-20T06:07:31.539Z,19.30
2019-05-20T06:09:58.217Z,19.30
2019-05-20T06:12:24.710Z,19.30
2019-05-20T06:14:51.223Z,19.40
2019-05-20T06:17:17.794Z,19.40
2019-05-20T06:19:44.298Z,19.40
2019-05-20T06:22:14.237Z,19.20
2019-05-20T06:24:39.051Z,19.00
2019-05-20T06:27:05.441Z,19.10
2019-05-20T06:29:31.989Z,19.30
2019-05-20T06:31:58.590Z,19.30
2019-05-20T06:34:25.667Z,19.40
2019-05-20T06:37:10.522Z,19.60
2019-05-20T06:39:37.598Z,19.60
2019-05-20T06:42:04.206Z,19.70
2019-05-20T06:44:31.200Z,19.70
2019-05-20T06:46:57.808Z,19.60
2019-05-20T06:49:24.207Z,19.60
2019-05-20T06:51:50.682Z,19.50
2019-05-20T06:54:17.311Z,19.40
2019-05-20T06:56:43.865Z,19.40
2019-05-20T06:59:10.356Z,19.60
2019-05-20T07:01:36.842Z,19.70
2019-05-20T07:04:03.474Z,19.80
2019-05-20T07:06:44.668Z,19.90
2019-05-20T07:08:58.889Z,20.10
2019-05-20T07:11:25.422Z,20.20
2019-05-20T07:13:52.337Z,20.20
2019-05-20T07:16:18.776Z,20.20
2019-05-20T07:18:45.291Z,20.40
2019-05-20T07:21:11.886Z,20.50
2019-05-20T07:23:41.071Z,20.60
2019-05-20T07:26:07.745Z,20.80
2019-05-20T07:28:34.212Z,20.90
2019-05-20T07:31:01.511Z,20.90
2019-05-20T07:33:28.500Z,21.00
2019-05-20T07:35:54.979Z,21.00
2019-05-20T07:38:21.505Z,21.10
2019-05-20T07:40:47.922Z,21.10
2019-05-20T07:43:14.388Z,21.00
2019-05-20T07:45:41.506Z,21.10
2019-05-20T07:48:08.110Z,21.10
2019-05-20T07:50:37.175Z,21.20
2019-05-20T07:53:06.073Z,21.40
2019-05-20T07:55:36.344Z,21.50
2019-05-20T07:58:06.803Z,21.50
2019-05-20T08:00:34.085Z,21.50
2019-05-20T08:03:00.747Z,21.20
2019-05-20T08:05:27.340Z,21.30
2019-05-20T08:07:53.961Z,21.50
2019-05-20T08:10:21.196Z,21.70
2019-05-20T08:12:47.826Z,21.90
2019-05-20T08:15:15.270Z,22.10
2019-05-20T08:17:41.898Z,22.20
2019-05-20T08:20:09.000Z,22.30
2019-05-20T08:22:35.685Z,22.40
2019-05-20T08:25:05.297Z,22.40
2019-05-20T08:27:31.915Z,22.40
2019-05-20T08:29:59.031Z,22.40
2019-05-20T08:32:25.821Z,22.40
2019-05-20T08:34:52.592Z,22.50
2019-05-20T08:37:19.274Z,22.80
2019-05-20T08:39:46.150Z,23.00
2019-05-20T08:42:13.179Z,23.20
2019-05-20T08:44:39.943Z,23.20
2019-05-20T08:47:06.691Z,23.30
2019-05-20T08:49:33.350Z,23.40
2019-05-20T08:52:00.011Z,23.60
2019-05-20T08:54:27.226Z,23.70
2019-05-20T08:56:53.714Z,23.60
2019-05-20T08:59:20.519Z,23.80
2019-05-20T09:01:47.487Z,23.80
2019-05-20T09:04:13.996Z,23.90
2019-05-20T09:06:40.783Z,23.90
2019-05-20T09:09:07.402Z,23.80
2019-05-20T09:11:34.018Z,23.90
2019-05-20T09:14:00.543Z,23.90
2019-05-20T09:16:27.232Z,24.10
2019-05-20T09:18:53.932Z,24.30
2019-05-20T09:21:20.616Z,24.40
2019-05-20T09:23:47.039Z,24.40
2019-05-20T09:26:13.547Z,24.50
2019-05-20T09:28:40.638Z,24.60
2019-05-20T09:31:07.800Z,24.60
2019-05-20T09:33:35.350Z,24.70
2019-05-20T09:36:02.055Z,24.90
2019-05-20T09:38:28.740Z,25.00
2019-05-20T09:40:55.394Z,25.30
2019-05-20T09:43:22.039Z,25.40
2019-05-20T09:46:04.115Z,25.50
2019-05-20T09:48:17.106Z,25.30
2019-05-20T09:50:43.959Z,25.30
2019-05-20T09:53:10.741Z,25.40
2019-05-20T09:55:37.497Z,25.10
2019-05-20T09:58:05.276Z,25.10
2019-05-20T10:00:31.974Z,24.80
2019-05-20T10:02:58.606Z,24.90
2019-05-20T10:05:25.067Z,25.10
2019-05-20T10:07:51.686Z,25.30
2019-05-20T10:10:19.191Z,25.30
2019-05-20T10:12:47.064Z,25.50
2019-05-20T10:15:14.997Z,25.70
2019-05-20T10:17:41.503Z,25.80
2019-05-20T10:20:09.937Z,25.60
2019-05-20T10:22:36.626Z,25.40
2019-05-20T10:25:05.117Z,25.50
2019-05-20T10:27:31.738Z,25.80
2019-05-20T10:29:58.337Z,26.40
2019-05-20T10:32:24.944Z,26.80
2019-05-20T10:34:51.603Z,27.20
2019-05-20T10:37:18.115Z,27.70
2019-05-20T10:39:44.660Z,28.20
2019-05-20T10:42:11.312Z,28.30
2019-05-20T10:44:41.699Z,28.30
2019-05-20T10:47:06.274Z,28.30
2019-05-20T10:49:34.953Z,28.30
2019-05-20T10:52:01.490Z,28.20
2019-05-20T10:54:28.122Z,28.10
2019-05-20T10:56:54.677Z,27.90
2019-05-20T10:59:21.191Z,27.90
2019-05-20T11:01:47.867Z,27.70
2019-05-20T11:04:14.381Z,27.90
2019-05-20T11:06:41.097Z,28.10
2019-05-20T11:09:14.069Z,28.40
2019-05-20T11:11:39.426Z,28.70
2019-05-20T11:14:05.951Z,28.90
2019-05-20T11:16:32.548Z,28.80
2019-05-20T11:18:59.069Z,28.80
2019-05-20T11:21:25.706Z,28.60
2019-05-20T11:23:52.202Z,28.30
2019-05-20T11:26:18.829Z,27.90
2019-05-20T11:28:45.377Z,27.50
2019-05-20T11:31:12.046Z,27.30
2019-05-20T11:33:38.758Z,27.00
2019-05-20T11:36:05.371Z,26.70
2019-05-20T11:38:31.947Z,26.60
2019-05-20T11:40:58.605Z,27.20
2019-05-20T11:43:25.814Z,28.30
2019-05-20T11:45:52.980Z,29.50
2019-05-20T11:48:19.567Z,30.50
2019-05-20T11:50:46.074Z,30.70
2019-05-20T11:53:12.897Z,30.40
2019-05-20T11:55:39.485Z,29.60
2019-05-20T11:58:15.782Z,28.70
2019-05-20T12:00:35.955Z,28.00
2019-05-20T12:03:02.564Z,27.30
2019-05-20T12:05:29.669Z,26.70
2019-05-20T12:07:56.290Z,26.20
2019-05-20T12:10:22.893Z,25.90
2019-05-20T12:12:49.614Z,25.60
2019-05-20T12:15:17.351Z,25.60
2019-05-20T12:17:43.892Z,25.50
2019-05-20T12:20:12.469Z,25.20
2019-05-20T12:22:39.363Z,24.80
2019-05-20T12:25:07.228Z,24.60
2019-05-20T12:27:33.827Z,24.90
2019-05-20T12:30:00.337Z,25.10
2019-05-20T12:32:26.752Z,25.10
2019-05-20T12:34:53.380Z,25.00
2019-05-20T12:37:19.893Z,25.10
2019-05-20T12:39:46.370Z,25.40
2019-05-20T12:42:13.408Z,26.10
2019-05-20T12:44:40.279Z,26.80
2019-05-20T12:47:07.065Z,27.60
2019-05-20T12:49:33.892Z,28.20
2019-05-20T12:52:00.729Z,28.40
2019-05-20T12:54:27.425Z,28.40
2019-05-20T12:56:54.075Z,28.70
2019-05-20T12:59:20.830Z,28.90
2019-05-20T13:01:47.254Z,29.10
2019-05-20T13:04:13.727Z,28.90
2019-05-20T13:06:40.255Z,29.30
2019-05-20T13:09:06.894Z,29.70
2019-05-20T13:11:33.618Z,29.90
2019-05-20T13:14:00.235Z,30.10
2019-05-20T13:16:26.777Z,30.60
2019-05-20T13:18:55.906Z,30.60
2019-05-20T13:21:21.831Z,30.00
2019-05-20T13:23:49.127Z,29.60
2019-05-20T13:26:16.044Z,29.40
2019-05-20T13:28:42.825Z,29.10
2019-05-20T13:31:09.522Z,29.30
2019-05-20T13:33:36.308Z,29.40
2019-05-20T13:36:02.834Z,29.70
2019-05-20T13:38:29.411Z,30.30
2019-05-20T13:40:56.086Z,30.60
2019-05-20T13:43:22.849Z,30.60
2019-05-20T13:45:49.964Z,30.40
2019-05-20T13:48:16.732Z,29.70
2019-05-20T13:50:43.363Z,29.00
2019-05-20T13:53:09.979Z,28.60
2019-05-20T13:55:36.666Z,28.90
2019-05-20T13:58:03.414Z,29.40
2019-05-20T14:00:30.361Z,29.90
2019-05-20T14:02:56.821Z,29.90
2019-05-20T14:05:23.495Z,29.50
2019-05-20T14:07:50.162Z,29.00
2019-05-20T14:10:17.216Z,28.70
2019-05-20T14:12:43.953Z,28.60
2019-05-20T14:15:11.268Z,28.30
2019-05-20T14:17:38.295Z,28.20
2019-05-20T14:20:05.977Z,28.20
2019-05-20T14:22:32.713Z,28.10
2019-05-20T14:24:59.527Z,28.30
2019-05-20T14:27:26.821Z,28.40
2019-05-20T14:29:53.497Z,28.20
2019-05-20T14:32:20.098Z,28.00
2019-05-20T14:34:46.735Z,27.80
2019-05-20T14:37:13.272Z,27.50
2019-05-20T14:39:39.892Z,27.10
2019-05-20T14:42:06.390Z,26.90
2019-05-20T14:44:33.580Z,26.60
2019-05-20T14:47:00.057Z,26.40
2019-05-20T14:49:26.684Z,26.10
2019-05-20T14:51:53.377Z,25.90
2019-05-20T14:54:19.817Z,25.80
2019-05-20T14:56:46.499Z,25.60
2019-05-20T14:59:13.019Z,25.20
2019-05-20T15:01:39.542Z,24.70
2019-05-20T15:04:06.070Z,23.20
2019-05-20T15:06:32.693Z,22.90
2019-05-20T15:08:59.198Z,23.00
2019-05-20T15:11:37.858Z,23.10
2019-05-20T15:13:54.100Z,23.20
2019-05-20T15:16:20.563Z,23.30
2019-05-20T15:18:47.539Z,23.50
2019-05-20T15:21:14.062Z,23.80
2019-05-20T15:23:41.698Z,24.20
2019-05-20T15:26:08.313Z,24.60
2019-05-20T15:28:34.794Z,25.20
2019-05-20T15:31:01.762Z,25.60
2019-05-20T15:33:28.327Z,26.00
2019-05-20T15:35:56.695Z,26.40
2019-05-20T15:38:23.095Z,26.50
2019-05-20T15:40:49.510Z,26.50
2019-05-20T15:43:16.052Z,26.60
2019-05-20T15:45:42.747Z,26.70
2019-05-20T15:48:10.607Z,26.90
2019-05-20T15:50:37.122Z,27.10
2019-05-20T15:53:03.897Z,27.20
2019-05-20T15:55:31.371Z,27.20
2019-05-20T15:57:58.337Z,27.20
2019-05-20T16:00:26.975Z,27.10
2019-05-20T16:02:53.561Z,27.00
2019-05-20T16:05:20.127Z,26.80
2019-05-20T16:07:47.057Z,26.60
2019-05-20T16:10:16.572Z,26.60
2019-05-20T16:12:43.849Z,26.60
2019-05-20T16:15:11.029Z,26.60
2019-05-20T16:17:37.502Z,26.60
2019-05-20T16:20:07.017Z,26.50
2019-05-20T16:22:33.914Z,26.50
2019-05-20T16:25:00.448Z,26.40
2019-05-20T16:27:27.347Z,26.20
2019-05-20T16:30:05.489Z,26.00
2019-05-20T16:32:22.296Z,26.00
2019-05-20T16:34:48.881Z,26.00
2019-05-20T16:37:15.493Z,26.10
2019-05-20T16:39:42.108Z,26.10
2019-05-20T16:42:08.755Z,25.30
2019-05-20T16:44:35.183Z,25.30
2019-05-20T16:47:03.135Z,25.40
2019-05-20T16:49:29.550Z,25.40
2019-05-20T16:51:56.157Z,25.30
2019-05-20T16:54:22.681Z,25.10
2019-05-20T16:56:49.352Z,25.10
2019-05-20T16:59:15.937Z,25.10
2019-05-20T17:01:46.191Z,25.10
2019-05-20T17:04:10.755Z,25.00
2019-05-20T17:06:37.304Z,24.80
2019-05-20T17:09:04.625Z,24.80
2019-05-20T17:11:31.528Z,24.70
2019-05-20T17:13:58.167Z,23.90
2019-05-20T17:16:24.772Z,23.50
2019-05-20T17:18:51.405Z,23.50
2019-05-20T17:21:17.874Z,23.60
2019-05-20T17:23:44.377Z,23.50
2019-05-20T17:26:10.991Z,23.50
2019-05-20T17:28:37.630Z,23.50
2019-05-20T17:31:04.135Z,23.40
2019-05-20T17:33:31.209Z,23.40
2019-05-20T17:35:57.712Z,23.40
2019-05-20T17:38:24.237Z,23.30
2019-05-20T17:40:50.905Z,23.10
2019-05-20T17:43:20.109Z,23.00
2019-05-20T17:45:46.686Z,23.00
2019-05-20T17:48:13.457Z,22.90
2019-05-20T17:50:40.727Z,22.80
2019-05-20T17:53:07.304Z,22.70
2019-05-20T17:55:33.765Z,22.70
2019-05-20T17:58:00.376Z,22.70
2019-05-20T18:00:27.187Z,22.70
2019-05-20T18:02:53.761Z,22.70
2019-05-20T18:05:20.372Z,22.70
2019-05-20T18:07:47.095Z,22.70
2019-05-20T18:10:15.050Z,22.60
2019-05-20T18:12:41.563Z,22.60
2019-05-20T18:15:08.671Z,22.60
2019-05-20T18:17:35.628Z,22.60
2019-05-20T18:20:04.744Z,22.50
2019-05-20T18:22:31.265Z,22.50
2019-05-20T18:24:57.842Z,22.40
2019-05-20T18:27:24.242Z,22.40
2019-05-20T18:29:50.865Z,22.30
2019-05-20T18:32:17.535Z,22.30
2019-05-20T18:34:44.055Z,22.20
2019-05-20T18:37:10.688Z,22.10
2019-05-20T18:39:37.353Z,22.10
2019-05-20T18:42:03.967Z,22.00
2019-05-20T18:44:30.521Z,21.80
2019-05-20T18:46:57.092Z,21.60
2019-05-20T18:49:23.747Z,21.50
2019-05-20T18:51:50.404Z,21.40
2019-05-20T18:54:17.053Z,21.30
2019-05-20T18:56:43.739Z,21.20
2019-05-20T18:59:10.310Z,21.10
2019-05-20T19:01:47.602Z,20.90
2019-05-20T19:04:05.225Z,20.90
2019-05-20T19:06:31.905Z,20.90
2019-05-20T19:08:58.328Z,20.90
2019-05-20T19:11:24.926Z,21.00
2019-05-20T19:13:51.427Z,21.10
2019-05-20T19:16:18.151Z,21.20
2019-05-20T19:18:44.932Z,21.20
2019-05-20T19:21:11.633Z,21.20
2019-05-20T19:23:38.151Z,21.10
2019-05-20T19:26:04.723Z,21.10
2019-05-20T19:28:31.320Z,21.20
2019-05-20T19:30:57.952Z,21.20
2019-05-20T19:33:24.616Z,21.20
2019-05-20T19:35:51.031Z,21.20
2019-05-20T19:38:17.650Z,21.20
2019-05-20T19:40:44.428Z,21.20
2019-05-20T19:43:11.388Z,21.10
2019-05-20T19:45:37.973Z,21.10
2019-05-20T19:48:04.610Z,21.00
2019-05-20T19:50:31.664Z,20.80
2019-05-20T19:52:58.358Z,20.60
2019-05-20T19:55:25.377Z,20.40
2019-05-20T19:57:51.909Z,20.30
2019-05-20T20:00:19.225Z,20.20
2019-05-20T20:02:45.706Z,20.20
2019-05-20T20:05:12.248Z,20.20
2019-05-20T20:07:38.676Z,20.10
2019-05-20T20:10:05.939Z,20.20
2019-05-20T20:12:32.528Z,20.20
2019-05-20T20:14:59.239Z,19.90
2019-05-20T20:17:25.784Z,19.80
2019-05-20T20:19:52.299Z,19.60
2019-05-20T20:22:18.840Z,19.50
2019-05-20T20:24:45.730Z,19.40
2019-05-20T20:27:12.236Z,19.30
2019-05-20T20:29:38.801Z,19.40
2019-05-20T20:32:05.516Z,19.50
2019-05-20T20:34:32.565Z,19.70
2019-05-20T20:36:59.541Z,19.80
2019-05-20T20:39:26.045Z,19.70
2019-05-20T20:41:52.557Z,19.60
2019-05-20T20:44:19.260Z,19.50
2019-05-20T20:46:45.910Z,19.40
2019-05-20T20:49:14.781Z,19.20
2019-05-20T20:51:40.912Z,19.20
2019-05-20T20:54:07.535Z,19.20
2019-05-20T20:56:34.377Z,19.10
2019-05-20T20:59:01.526Z,19.10
2019-05-20T21:01:28.147Z,19.10
2019-05-20T21:03:54.818Z,19.10
2019-05-20T21:06:21.425Z,19.00
2019-05-20T21:08:47.929Z,19.00
2019-05-20T21:11:14.494Z,19.00
2019-05-20T21:13:41.563Z,19.00
2019-05-20T21:16:08.106Z,18.90
2019-05-20T21:18:34.652Z,18.90
2019-05-20T21:21:01.600Z,18.80
2019-05-20T21:23:28.078Z,18.80
2019-05-20T21:25:54.595Z,18.90
2019-05-20T21:28:21.167Z,19.00
2019-05-20T21:30:47.572Z,19.10
2019-05-20T21:33:14.126Z,19.10
2019-05-20T21:35:40.634Z,19.00
2019-05-20T21:38:07.038Z,18.90
2019-05-20T21:40:33.487Z,19.00
2019-05-20T21:42:59.912Z,19.00
2019-05-20T21:45:26.529Z,19.10
2019-05-20T21:47:53.067Z,19.10
2019-05-20T21:50:19.474Z,19.10
2019-05-20T21:52:46.546Z,19.10
2019-05-20T21:55:13.191Z,19.20
2019-05-20T21:57:39.705Z,19.30
2019-05-20T22:00:07.559Z,19.20
2019-05-20T22:02:34.082Z,19.20
2019-05-20T22:05:00.491Z,19.30
2019-05-20T22:07:27.526Z,19.20
2019-05-20T22:09:54.338Z,19.10
2019-05-20T22:12:20.962Z,19.00
2019-05-20T22:14:47.434Z,19.00
2019-05-20T22:17:13.952Z,19.00
2019-05-20T22:19:40.350Z,18.90
2019-05-20T22:22:14.782Z,19.00
2019-05-20T22:24:41.308Z,19.00
2019-05-20T22:27:07.919Z,19.10
2019-05-20T22:29:34.365Z,19.20
2019-05-20T22:32:00.876Z,19.20
2019-05-20T22:34:27.391Z,19.30
2019-05-20T22:36:53.952Z,19.20
2019-05-20T22:39:21.066Z,19.20
2019-05-20T22:41:47.558Z,19.10
2019-05-20T22:44:14.157Z,19.00
2019-05-20T22:46:41.142Z,19.00
2019-05-20T22:49:07.555Z,19.10
2019-05-20T22:51:34.464Z,19.20
2019-05-20T22:54:01.031Z,19.20
2019-05-20T22:56:27.503Z,19.20
2019-05-20T22:58:53.948Z,19.20
2019-05-20T23:01:20.551Z,19.20
2019-05-20T23:03:56.017Z,19.20
2019-05-20T23:06:15.506Z,19.20
2019-05-20T23:08:42.051Z,19.10
2019-05-20T23:11:08.606Z,19.00
2019-05-20T23:13:35.206Z,19.10
2019-05-20T23:16:01.824Z,19.10
2019-05-20T23:18:28.478Z,19.10
2019-05-20T23:20:54.884Z,19.10
2019-05-20T23:23:21.397Z,19.00
2019-05-20T23:25:47.869Z,18.80
2019-05-20T23:28:14.802Z,18.80
2019-05-20T23:30:41.414Z,18.70
2019-05-20T23:33:07.975Z,18.60
2019-05-20T23:35:34.486Z,18.70
2019-05-20T23:38:00.990Z,18.60
2019-05-20T23:40:27.651Z,18.30
2019-05-20T23:42:54.158Z,18.20
2019-05-20T23:45:20.774Z,18.20
2019-05-20T23:47:47.452Z,18.30
2019-05-20T23:50:14.229Z,18.20
2019-05-20T23:52:40.667Z,18.20
2019-05-20T23:55:08.219Z,18.20
2019-05-20T23:57:34.627Z,18.10
